sensor_id;sensor_type;location;lat;lon;timestamp;P1;durP1;ratioP1;P2;durP2;ratioP2
41141;SDS011;63666;52.284;20.890;2023-05-31T00:00:48;5.20;;;2.50;;
41141;SDS011;63666;52.284;20.890;2023-05-31T00:03:26;5.20;;;2.40;;
41141;SDS011;63666;52.284;20.890;2023-05-31T00:06:00;5.40;;;2.30;;
41141;SDS011;63666;52.284;20.890;2023-05-31T00:08:34;4.80;;;2.40;;
41141;SDS011;63666;52.284;20.890;2023-05-31T00:11:08;5.80;;;2.50;;
41141;SDS011;63666;52.284;20.890;2023-05-31T00:13:42;4.90;;;2.40;;
41141;SDS011;63666;52.284;20.890;2023-05-31T00:16:15;4.80;;;2.40;;
41141;SDS011;63666;52.284;20.890;2023-05-31T00:19:09;4.50;;;2.30;;
41141;SDS011;63666;52.284;20.890;2023-05-31T00:21:44;5.60;;;2.50;;
41141;SDS011;63666;52.284;20.890;2023-05-31T00:24:18;5.20;;;2.50;;
41141;SDS011;63666;52.284;20.890;2023-05-31T00:26:51;4.80;;;2.30;;
41141;SDS011;63666;52.284;20.890;2023-05-31T00:29:25;5.00;;;2.30;;
41141;SDS011;63666;52.284;20.890;2023-05-31T00:31:59;4.90;;;2.50;;
41141;SDS011;63666;52.284;20.890;2023-05-31T00:34:33;5.20;;;2.30;;
41141;SDS011;63666;52.284;20.890;2023-05-31T00:37:07;4.80;;;2.30;;
41141;SDS011;63666;52.284;20.890;2023-05-31T00:39:41;4.80;;;2.50;;
41141;SDS011;63666;52.284;20.890;2023-05-31T00:42:17;5.70;;;2.60;;
41141;SDS011;63666;52.284;20.890;2023-05-31T00:44:51;5.70;;;2.60;;
41141;SDS011;63666;52.284;20.890;2023-05-31T00:47:24;5.20;;;2.50;;
41141;SDS011;63666;52.284;20.890;2023-05-31T00:49:59;4.70;;;2.50;;
41141;SDS011;63666;52.284;20.890;2023-05-31T00:52:33;4.90;;;2.30;;
41141;SDS011;63666;52.284;20.890;2023-05-31T00:55:09;5.40;;;2.40;;
41141;SDS011;63666;52.284;20.890;2023-05-31T00:57:43;4.30;;;2.20;;
41141;SDS011;63666;52.284;20.890;2023-05-31T01:00:17;4.10;;;2.20;;
41141;SDS011;63666;52.284;20.890;2023-05-31T01:02:51;5.40;;;2.70;;
41141;SDS011;63666;52.284;20.890;2023-05-31T01:05:25;4.60;;;2.20;;
41141;SDS011;63666;52.284;20.890;2023-05-31T01:07:59;5.00;;;2.50;;
41141;SDS011;63666;52.284;20.890;2023-05-31T01:10:34;5.10;;;2.10;;
41141;SDS011;63666;52.284;20.890;2023-05-31T01:13:12;4.50;;;2.40;;
41141;SDS011;63666;52.284;20.890;2023-05-31T01:15:57;4.30;;;2.40;;
41141;SDS011;63666;52.284;20.890;2023-05-31T01:18:40;4.60;;;2.30;;
41141;SDS011;63666;52.284;20.890;2023-05-31T01:21:18;5.10;;;2.50;;
41141;SDS011;63666;52.284;20.890;2023-05-31T01:24:03;5.00;;;2.20;;
41141;SDS011;63666;52.284;20.890;2023-05-31T01:26:45;4.90;;;2.50;;
41141;SDS011;63666;52.284;20.890;2023-05-31T01:29:22;4.70;;;2.20;;
41141;SDS011;63666;52.284;20.890;2023-05-31T01:31:58;5.10;;;2.40;;
41141;SDS011;63666;52.284;20.890;2023-05-31T01:34:33;4.80;;;2.30;;
41141;SDS011;63666;52.284;20.890;2023-05-31T01:37:07;4.40;;;2.30;;
41141;SDS011;63666;52.284;20.890;2023-05-31T01:39:43;4.90;;;2.50;;
41141;SDS011;63666;52.284;20.890;2023-05-31T01:42:18;4.30;;;2.30;;
41141;SDS011;63666;52.284;20.890;2023-05-31T01:44:52;4.60;;;2.20;;
41141;SDS011;63666;52.284;20.890;2023-05-31T01:47:27;4.30;;;2.20;;
41141;SDS011;63666;52.284;20.890;2023-05-31T01:50:01;4.20;;;2.10;;
41141;SDS011;63666;52.284;20.890;2023-05-31T01:52:38;5.00;;;2.50;;
41141;SDS011;63666;52.284;20.890;2023-05-31T01:55:12;4.70;;;2.10;;
41141;SDS011;63666;52.284;20.890;2023-05-31T01:57:47;5.10;;;2.30;;
41141;SDS011;63666;52.284;20.890;2023-05-31T02:00:22;4.30;;;2.00;;
41141;SDS011;63666;52.284;20.890;2023-05-31T02:02:56;4.80;;;2.00;;
41141;SDS011;63666;52.284;20.890;2023-05-31T02:05:30;4.50;;;2.20;;
41141;SDS011;63666;52.284;20.890;2023-05-31T02:08:05;4.70;;;2.10;;
41141;SDS011;63666;52.284;20.890;2023-05-31T02:10:38;4.50;;;2.10;;
41141;SDS011;63666;52.284;20.890;2023-05-31T02:13:12;4.50;;;2.10;;
41141;SDS011;63666;52.284;20.890;2023-05-31T02:15:46;4.00;;;2.00;;
41141;SDS011;63666;52.284;20.890;2023-05-31T02:18:19;4.40;;;2.10;;
41141;SDS011;63666;52.284;20.890;2023-05-31T02:20:52;4.40;;;1.90;;
41141;SDS011;63666;52.284;20.890;2023-05-31T02:23:25;4.70;;;2.00;;
41141;SDS011;63666;52.284;20.890;2023-05-31T02:25:59;4.10;;;2.10;;
41141;SDS011;63666;52.284;20.890;2023-05-31T02:28:35;4.50;;;2.00;;
41141;SDS011;63666;52.284;20.890;2023-05-31T02:31:09;4.80;;;2.20;;
41141;SDS011;63666;52.284;20.890;2023-05-31T02:33:43;4.30;;;1.90;;
41141;SDS011;63666;52.284;20.890;2023-05-31T02:36:16;4.30;;;2.00;;
41141;SDS011;63666;52.284;20.890;2023-05-31T02:38:50;4.50;;;2.00;;
41141;SDS011;63666;52.284;20.890;2023-05-31T02:41:24;4.50;;;2.30;;
41141;SDS011;63666;52.284;20.890;2023-05-31T02:43:57;4.60;;;2.40;;
41141;SDS011;63666;52.284;20.890;2023-05-31T02:46:31;5.00;;;2.10;;
41141;SDS011;63666;52.284;20.890;2023-05-31T02:49:05;4.70;;;2.10;;
41141;SDS011;63666;52.284;20.890;2023-05-31T02:51:39;4.30;;;2.00;;
41141;SDS011;63666;52.284;20.890;2023-05-31T02:54:12;5.20;;;2.10;;
41141;SDS011;63666;52.284;20.890;2023-05-31T02:56:46;4.50;;;1.90;;
41141;SDS011;63666;52.284;20.890;2023-05-31T02:59:19;4.20;;;1.90;;
41141;SDS011;63666;52.284;20.890;2023-05-31T03:01:53;4.50;;;2.10;;
41141;SDS011;63666;52.284;20.890;2023-05-31T03:04:27;4.80;;;2.00;;
41141;SDS011;63666;52.284;20.890;2023-05-31T03:07:05;4.70;;;1.90;;
41141;SDS011;63666;52.284;20.890;2023-05-31T03:09:38;4.50;;;2.20;;
41141;SDS011;63666;52.284;20.890;2023-05-31T03:12:14;4.40;;;2.10;;
41141;SDS011;63666;52.284;20.890;2023-05-31T03:14:47;4.30;;;2.00;;
41141;SDS011;63666;52.284;20.890;2023-05-31T03:17:22;4.70;;;2.00;;
41141;SDS011;63666;52.284;20.890;2023-05-31T03:19:57;4.60;;;2.30;;
41141;SDS011;63666;52.284;20.890;2023-05-31T03:22:31;4.10;;;1.90;;
41141;SDS011;63666;52.284;20.890;2023-05-31T03:25:07;4.50;;;1.90;;
41141;SDS011;63666;52.284;20.890;2023-05-31T03:27:41;4.20;;;1.80;;
41141;SDS011;63666;52.284;20.890;2023-05-31T03:30:15;4.10;;;2.00;;
41141;SDS011;63666;52.284;20.890;2023-05-31T03:32:49;4.40;;;2.10;;
41141;SDS011;63666;52.284;20.890;2023-05-31T03:35:23;3.60;;;1.70;;
41141;SDS011;63666;52.284;20.890;2023-05-31T03:37:57;4.40;;;2.00;;
41141;SDS011;63666;52.284;20.890;2023-05-31T03:40:32;4.10;;;1.80;;
41141;SDS011;63666;52.284;20.890;2023-05-31T03:43:05;5.00;;;2.00;;
41141;SDS011;63666;52.284;20.890;2023-05-31T03:45:39;4.30;;;1.80;;
41141;SDS011;63666;52.284;20.890;2023-05-31T03:48:12;3.60;;;1.70;;
41141;SDS011;63666;52.284;20.890;2023-05-31T03:50:46;3.80;;;1.80;;
41141;SDS011;63666;52.284;20.890;2023-05-31T03:53:20;4.50;;;1.70;;
41141;SDS011;63666;52.284;20.890;2023-05-31T03:55:55;4.60;;;1.80;;
41141;SDS011;63666;52.284;20.890;2023-05-31T03:58:30;4.00;;;1.70;;
41141;SDS011;63666;52.284;20.890;2023-05-31T04:01:05;3.90;;;1.70;;
41141;SDS011;63666;52.284;20.890;2023-05-31T04:03:40;3.80;;;1.70;;
41141;SDS011;63666;52.284;20.890;2023-05-31T04:06:15;3.90;;;1.70;;
41141;SDS011;63666;52.284;20.890;2023-05-31T04:08:52;3.40;;;1.50;;
41141;SDS011;63666;52.284;20.890;2023-05-31T04:11:26;4.20;;;1.70;;
41141;SDS011;63666;52.284;20.890;2023-05-31T04:14:00;3.80;;;1.70;;
41141;SDS011;63666;52.284;20.890;2023-05-31T04:16:34;4.00;;;1.60;;
41141;SDS011;63666;52.284;20.890;2023-05-31T04:19:10;4.10;;;1.60;;
41141;SDS011;63666;52.284;20.890;2023-05-31T04:21:45;4.30;;;1.80;;
41141;SDS011;63666;52.284;20.890;2023-05-31T04:24:18;4.00;;;1.60;;
41141;SDS011;63666;52.284;20.890;2023-05-31T04:26:52;4.00;;;1.70;;
41141;SDS011;63666;52.284;20.890;2023-05-31T04:29:25;3.90;;;1.60;;
41141;SDS011;63666;52.284;20.890;2023-05-31T04:31:59;4.30;;;1.60;;
41141;SDS011;63666;52.284;20.890;2023-05-31T04:34:32;4.00;;;1.40;;
41141;SDS011;63666;52.284;20.890;2023-05-31T04:37:07;4.60;;;1.60;;
41141;SDS011;63666;52.284;20.890;2023-05-31T04:39:41;5.00;;;1.90;;
41141;SDS011;63666;52.284;20.890;2023-05-31T04:42:15;4.20;;;1.70;;
41141;SDS011;63666;52.284;20.890;2023-05-31T04:44:49;4.80;;;1.70;;
41141;SDS011;63666;52.284;20.890;2023-05-31T04:47:25;4.60;;;1.90;;
41141;SDS011;63666;52.284;20.890;2023-05-31T04:49:59;4.40;;;1.70;;
41141;SDS011;63666;52.284;20.890;2023-05-31T04:52:34;4.50;;;1.70;;
41141;SDS011;63666;52.284;20.890;2023-05-31T04:55:11;3.90;;;1.50;;
41141;SDS011;63666;52.284;20.890;2023-05-31T04:57:45;4.50;;;1.80;;
41141;SDS011;63666;52.284;20.890;2023-05-31T05:00:20;3.70;;;1.60;;
41141;SDS011;63666;52.284;20.890;2023-05-31T05:02:54;3.80;;;1.50;;
41141;SDS011;63666;52.284;20.890;2023-05-31T05:05:29;4.30;;;2.00;;
41141;SDS011;63666;52.284;20.890;2023-05-31T05:08:02;4.10;;;1.70;;
41141;SDS011;63666;52.284;20.890;2023-05-31T05:10:36;4.90;;;1.50;;
41141;SDS011;63666;52.284;20.890;2023-05-31T05:13:12;4.60;;;1.60;;
41141;SDS011;63666;52.284;20.890;2023-05-31T05:15:46;4.50;;;1.60;;
41141;SDS011;63666;52.284;20.890;2023-05-31T05:18:20;3.30;;;1.40;;
41141;SDS011;63666;52.284;20.890;2023-05-31T05:20:54;4.50;;;1.70;;
41141;SDS011;63666;52.284;20.890;2023-05-31T05:23:30;4.00;;;1.50;;
41141;SDS011;63666;52.284;20.890;2023-05-31T05:26:06;4.20;;;1.60;;
41141;SDS011;63666;52.284;20.890;2023-05-31T05:28:40;4.70;;;2.00;;
41141;SDS011;63666;52.284;20.890;2023-05-31T05:31:14;4.20;;;1.50;;
41141;SDS011;63666;52.284;20.890;2023-05-31T05:33:49;4.00;;;1.40;;
41141;SDS011;63666;52.284;20.890;2023-05-31T05:36:25;3.80;;;1.30;;
41141;SDS011;63666;52.284;20.890;2023-05-31T05:39:02;4.30;;;1.50;;
41141;SDS011;63666;52.284;20.890;2023-05-31T05:41:38;4.10;;;1.50;;
41141;SDS011;63666;52.284;20.890;2023-05-31T05:44:11;3.60;;;1.40;;
41141;SDS011;63666;52.284;20.890;2023-05-31T05:46:45;5.20;;;1.90;;
41141;SDS011;63666;52.284;20.890;2023-05-31T05:49:19;4.10;;;1.40;;
41141;SDS011;63666;52.284;20.890;2023-05-31T05:51:53;3.20;;;1.10;;
41141;SDS011;63666;52.284;20.890;2023-05-31T05:54:26;3.60;;;1.30;;
41141;SDS011;63666;52.284;20.890;2023-05-31T05:57:00;3.90;;;1.40;;
41141;SDS011;63666;52.284;20.890;2023-05-31T05:59:34;3.90;;;1.50;;
41141;SDS011;63666;52.284;20.890;2023-05-31T06:02:08;3.50;;;1.30;;
41141;SDS011;63666;52.284;20.890;2023-05-31T06:04:45;3.30;;;1.30;;
41141;SDS011;63666;52.284;20.890;2023-05-31T06:07:20;3.80;;;1.50;;
41141;SDS011;63666;52.284;20.890;2023-05-31T06:09:54;3.90;;;1.40;;
41141;SDS011;63666;52.284;20.890;2023-05-31T06:12:29;3.10;;;1.30;;
41141;SDS011;63666;52.284;20.890;2023-05-31T06:15:03;4.10;;;1.30;;
41141;SDS011;63666;52.284;20.890;2023-05-31T06:17:38;3.60;;;1.20;;
41141;SDS011;63666;52.284;20.890;2023-05-31T06:20:13;3.50;;;1.30;;
41141;SDS011;63666;52.284;20.890;2023-05-31T06:22:49;3.80;;;1.30;;
41141;SDS011;63666;52.284;20.890;2023-05-31T06:25:23;3.30;;;1.40;;
41141;SDS011;63666;52.284;20.890;2023-05-31T06:27:57;3.60;;;1.40;;
41141;SDS011;63666;52.284;20.890;2023-05-31T06:30:30;3.60;;;1.30;;
41141;SDS011;63666;52.284;20.890;2023-05-31T06:33:04;3.70;;;1.60;;
41141;SDS011;63666;52.284;20.890;2023-05-31T06:35:38;3.40;;;1.20;;
41141;SDS011;63666;52.284;20.890;2023-05-31T06:38:13;3.10;;;1.20;;
41141;SDS011;63666;52.284;20.890;2023-05-31T06:40:49;3.70;;;1.20;;
41141;SDS011;63666;52.284;20.890;2023-05-31T06:43:25;3.90;;;1.40;;
41141;SDS011;63666;52.284;20.890;2023-05-31T06:45:58;3.10;;;1.20;;
41141;SDS011;63666;52.284;20.890;2023-05-31T06:48:31;3.80;;;1.30;;
41141;SDS011;63666;52.284;20.890;2023-05-31T06:51:06;4.00;;;1.30;;
41141;SDS011;63666;52.284;20.890;2023-05-31T06:53:40;3.50;;;1.20;;
41141;SDS011;63666;52.284;20.890;2023-05-31T06:56:16;2.90;;;1.10;;
41141;SDS011;63666;52.284;20.890;2023-05-31T06:58:50;3.40;;;1.20;;
41141;SDS011;63666;52.284;20.890;2023-05-31T07:01:24;4.30;;;1.30;;
41141;SDS011;63666;52.284;20.890;2023-05-31T07:04:00;3.30;;;1.20;;
41141;SDS011;63666;52.284;20.890;2023-05-31T07:06:37;3.80;;;1.40;;
41141;SDS011;63666;52.284;20.890;2023-05-31T07:09:10;3.80;;;1.30;;
41141;SDS011;63666;52.284;20.890;2023-05-31T07:11:46;3.20;;;1.20;;
41141;SDS011;63666;52.284;20.890;2023-05-31T07:14:19;2.90;;;1.20;;
41141;SDS011;63666;52.284;20.890;2023-05-31T07:16:54;3.50;;;1.30;;
41141;SDS011;63666;52.284;20.890;2023-05-31T07:19:31;4.50;;;1.40;;
41141;SDS011;63666;52.284;20.890;2023-05-31T07:22:18;3.20;;;1.20;;
41141;SDS011;63666;52.284;20.890;2023-05-31T07:24:53;3.30;;;1.10;;
41141;SDS011;63666;52.284;20.890;2023-05-31T07:27:29;4.20;;;1.40;;
41141;SDS011;63666;52.284;20.890;2023-05-31T07:30:07;4.40;;;1.20;;
41141;SDS011;63666;52.284;20.890;2023-05-31T07:32:42;3.40;;;1.20;;
41141;SDS011;63666;52.284;20.890;2023-05-31T07:35:17;3.80;;;1.30;;
41141;SDS011;63666;52.284;20.890;2023-05-31T07:37:52;3.70;;;1.30;;
41141;SDS011;63666;52.284;20.890;2023-05-31T07:40:27;3.80;;;1.20;;
41141;SDS011;63666;52.284;20.890;2023-05-31T07:43:00;4.30;;;1.30;;
41141;SDS011;63666;52.284;20.890;2023-05-31T07:45:34;4.00;;;1.30;;
41141;SDS011;63666;52.284;20.890;2023-05-31T07:48:09;4.10;;;1.60;;
41141;SDS011;63666;52.284;20.890;2023-05-31T07:50:44;4.60;;;1.60;;
41141;SDS011;63666;52.284;20.890;2023-05-31T07:53:20;4.30;;;1.30;;
41141;SDS011;63666;52.284;20.890;2023-05-31T07:55:57;3.80;;;1.40;;
41141;SDS011;63666;52.284;20.890;2023-05-31T07:58:30;3.80;;;1.40;;
41141;SDS011;63666;52.284;20.890;2023-05-31T08:01:05;3.40;;;1.10;;
41141;SDS011;63666;52.284;20.890;2023-05-31T08:06:15;3.50;;;1.30;;
41141;SDS011;63666;52.284;20.890;2023-05-31T08:08:51;3.90;;;1.30;;
41141;SDS011;63666;52.284;20.890;2023-05-31T08:11:26;3.30;;;1.20;;
41141;SDS011;63666;52.284;20.890;2023-05-31T08:13:59;3.60;;;1.30;;
41141;SDS011;63666;52.284;20.890;2023-05-31T08:16:34;3.50;;;1.30;;
41141;SDS011;63666;52.284;20.890;2023-05-31T08:19:07;3.30;;;1.20;;
41141;SDS011;63666;52.284;20.890;2023-05-31T08:21:41;3.30;;;1.20;;
41141;SDS011;63666;52.284;20.890;2023-05-31T08:24:15;3.90;;;1.40;;
41141;SDS011;63666;52.284;20.890;2023-05-31T08:26:48;4.10;;;1.30;;
41141;SDS011;63666;52.284;20.890;2023-05-31T08:29:22;2.90;;;1.10;;
41141;SDS011;63666;52.284;20.890;2023-05-31T08:31:56;2.90;;;1.10;;
41141;SDS011;63666;52.284;20.890;2023-05-31T08:34:30;2.90;;;1.00;;
41141;SDS011;63666;52.284;20.890;2023-05-31T08:37:04;3.00;;;1.10;;
41141;SDS011;63666;52.284;20.890;2023-05-31T08:39:39;3.20;;;1.00;;
41141;SDS011;63666;52.284;20.890;2023-05-31T08:42:16;3.30;;;1.10;;
41141;SDS011;63666;52.284;20.890;2023-05-31T08:44:53;3.00;;;0.90;;
41141;SDS011;63666;52.284;20.890;2023-05-31T08:47:35;3.00;;;1.00;;
41141;SDS011;63666;52.284;20.890;2023-05-31T08:50:11;3.60;;;1.10;;
41141;SDS011;63666;52.284;20.890;2023-05-31T08:52:48;3.10;;;1.10;;
41141;SDS011;63666;52.284;20.890;2023-05-31T08:55:23;3.40;;;1.00;;
41141;SDS011;63666;52.284;20.890;2023-05-31T08:57:58;3.00;;;1.10;;
41141;SDS011;63666;52.284;20.890;2023-05-31T09:00:33;3.30;;;1.00;;
41141;SDS011;63666;52.284;20.890;2023-05-31T09:03:10;2.70;;;1.00;;
41141;SDS011;63666;52.284;20.890;2023-05-31T09:05:43;3.80;;;1.10;;
41141;SDS011;63666;52.284;20.890;2023-05-31T09:08:18;3.70;;;1.00;;
41141;SDS011;63666;52.284;20.890;2023-05-31T09:10:52;2.80;;;1.00;;
41141;SDS011;63666;52.284;20.890;2023-05-31T09:13:27;3.00;;;1.00;;
41141;SDS011;63666;52.284;20.890;2023-05-31T09:16:05;2.50;;;0.90;;
41141;SDS011;63666;52.284;20.890;2023-05-31T09:18:40;3.60;;;1.10;;
41141;SDS011;63666;52.284;20.890;2023-05-31T09:21:16;3.10;;;1.00;;
41141;SDS011;63666;52.284;20.890;2023-05-31T09:23:54;2.90;;;0.90;;
41141;SDS011;63666;52.284;20.890;2023-05-31T09:26:30;3.10;;;0.90;;
41141;SDS011;63666;52.284;20.890;2023-05-31T09:29:07;3.20;;;0.90;;
41141;SDS011;63666;52.284;20.890;2023-05-31T09:31:42;2.60;;;0.90;;
41141;SDS011;63666;52.284;20.890;2023-05-31T09:34:27;3.10;;;0.90;;
41141;SDS011;63666;52.284;20.890;2023-05-31T09:37:00;2.30;;;0.80;;
41141;SDS011;63666;52.284;20.890;2023-05-31T09:39:35;2.40;;;0.70;;
41141;SDS011;63666;52.284;20.890;2023-05-31T09:42:14;3.10;;;0.90;;
41141;SDS011;63666;52.284;20.890;2023-05-31T09:44:53;3.10;;;0.90;;
41141;SDS011;63666;52.284;20.890;2023-05-31T09:47:29;2.10;;;0.80;;
41141;SDS011;63666;52.284;20.890;2023-05-31T09:50:04;2.70;;;0.90;;
41141;SDS011;63666;52.284;20.890;2023-05-31T09:52:38;2.30;;;0.70;;
41141;SDS011;63666;52.284;20.890;2023-05-31T09:55:15;2.20;;;0.80;;
41141;SDS011;63666;52.284;20.890;2023-05-31T09:57:52;2.10;;;0.80;;
41141;SDS011;63666;52.284;20.890;2023-05-31T10:00:28;2.30;;;0.70;;
41141;SDS011;63666;52.284;20.890;2023-05-31T10:03:04;3.10;;;1.00;;
41141;SDS011;63666;52.284;20.890;2023-05-31T10:05:41;2.10;;;0.90;;
41141;SDS011;63666;52.284;20.890;2023-05-31T10:08:15;2.40;;;0.90;;
41141;SDS011;63666;52.284;20.890;2023-05-31T10:10:51;2.80;;;0.80;;
41141;SDS011;63666;52.284;20.890;2023-05-31T10:13:28;2.10;;;0.80;;
41141;SDS011;63666;52.284;20.890;2023-05-31T10:16:06;1.70;;;0.70;;
41141;SDS011;63666;52.284;20.890;2023-05-31T10:18:47;2.10;;;0.70;;
41141;SDS011;63666;52.284;20.890;2023-05-31T10:21:24;1.90;;;0.60;;
41141;SDS011;63666;52.284;20.890;2023-05-31T10:24:00;2.10;;;0.70;;
41141;SDS011;63666;52.284;20.890;2023-05-31T10:26:41;3.60;;;0.70;;
41141;SDS011;63666;52.284;20.890;2023-05-31T10:29:21;2.10;;;0.80;;
41141;SDS011;63666;52.284;20.890;2023-05-31T10:32:04;2.40;;;0.70;;
41141;SDS011;63666;52.284;20.890;2023-05-31T10:34:40;2.10;;;0.80;;
41141;SDS011;63666;52.284;20.890;2023-05-31T10:37:14;2.20;;;0.70;;
41141;SDS011;63666;52.284;20.890;2023-05-31T10:39:51;2.80;;;0.80;;
41141;SDS011;63666;52.284;20.890;2023-05-31T10:42:33;2.50;;;0.80;;
41141;SDS011;63666;52.284;20.890;2023-05-31T10:45:15;2.50;;;0.80;;
41141;SDS011;63666;52.284;20.890;2023-05-31T10:47:55;2.70;;;0.80;;
41141;SDS011;63666;52.284;20.890;2023-05-31T10:50:31;3.60;;;0.90;;
41141;SDS011;63666;52.284;20.890;2023-05-31T10:53:11;3.30;;;0.80;;
41141;SDS011;63666;52.284;20.890;2023-05-31T10:55:47;3.30;;;1.00;;
41141;SDS011;63666;52.284;20.890;2023-05-31T10:58:28;2.50;;;0.90;;
41141;SDS011;63666;52.284;20.890;2023-05-31T11:01:05;3.30;;;0.90;;
41141;SDS011;63666;52.284;20.890;2023-05-31T11:03:45;3.10;;;1.10;;
41141;SDS011;63666;52.284;20.890;2023-05-31T11:06:25;2.80;;;0.90;;
41141;SDS011;63666;52.284;20.890;2023-05-31T11:09:00;3.10;;;1.00;;
41141;SDS011;63666;52.284;20.890;2023-05-31T11:11:45;2.80;;;1.00;;
41141;SDS011;63666;52.284;20.890;2023-05-31T11:14:32;2.80;;;0.90;;
41141;SDS011;63666;52.284;20.890;2023-05-31T11:17:19;3.30;;;1.20;;
41141;SDS011;63666;52.284;20.890;2023-05-31T11:19:56;2.70;;;0.80;;
41141;SDS011;63666;52.284;20.890;2023-05-31T11:22:29;2.60;;;0.80;;
41141;SDS011;63666;52.284;20.890;2023-05-31T11:25:03;2.70;;;0.80;;
41141;SDS011;63666;52.284;20.890;2023-05-31T11:27:42;3.10;;;1.00;;
41141;SDS011;63666;52.284;20.890;2023-05-31T11:30:18;3.10;;;0.90;;
41141;SDS011;63666;52.284;20.890;2023-05-31T11:33:14;2.70;;;1.10;;
41141;SDS011;63666;52.284;20.890;2023-05-31T11:35:49;3.00;;;0.90;;
41141;SDS011;63666;52.284;20.890;2023-05-31T11:38:23;3.20;;;1.00;;
41141;SDS011;63666;52.284;20.890;2023-05-31T11:41:05;3.20;;;1.00;;
41141;SDS011;63666;52.284;20.890;2023-05-31T11:43:39;3.80;;;1.00;;
41141;SDS011;63666;52.284;20.890;2023-05-31T11:46:13;3.10;;;1.10;;
41141;SDS011;63666;52.284;20.890;2023-05-31T11:48:47;2.40;;;1.00;;
41141;SDS011;63666;52.284;20.890;2023-05-31T11:51:20;2.80;;;1.00;;
41141;SDS011;63666;52.284;20.890;2023-05-31T11:53:57;2.90;;;1.00;;
41141;SDS011;63666;52.284;20.890;2023-05-31T11:56:31;2.70;;;1.00;;
41141;SDS011;63666;52.284;20.890;2023-05-31T11:59:07;3.00;;;1.10;;
41141;SDS011;63666;52.284;20.890;2023-05-31T12:01:41;3.20;;;1.00;;
41141;SDS011;63666;52.284;20.890;2023-05-31T12:04:14;2.50;;;0.90;;
41141;SDS011;63666;52.284;20.890;2023-05-31T12:06:47;2.20;;;0.90;;
41141;SDS011;63666;52.284;20.890;2023-05-31T12:09:26;3.30;;;1.10;;
41141;SDS011;63666;52.284;20.890;2023-05-31T12:11:59;2.60;;;1.00;;
41141;SDS011;63666;52.284;20.890;2023-05-31T12:14:35;3.10;;;1.10;;
41141;SDS011;63666;52.284;20.890;2023-05-31T12:17:09;2.50;;;1.00;;
41141;SDS011;63666;52.284;20.890;2023-05-31T12:19:42;3.30;;;1.00;;
41141;SDS011;63666;52.284;20.890;2023-05-31T12:22:18;2.00;;;0.80;;
41141;SDS011;63666;52.284;20.890;2023-05-31T12:24:56;2.80;;;1.00;;
41141;SDS011;63666;52.284;20.890;2023-05-31T12:27:29;3.10;;;1.00;;
41141;SDS011;63666;52.284;20.890;2023-05-31T12:30:18;4.10;;;1.00;;
41141;SDS011;63666;52.284;20.890;2023-05-31T12:33:06;2.50;;;1.00;;
41141;SDS011;63666;52.284;20.890;2023-05-31T12:35:45;2.30;;;0.90;;
41141;SDS011;63666;52.284;20.890;2023-05-31T12:38:19;3.00;;;1.00;;
41141;SDS011;63666;52.284;20.890;2023-05-31T12:41:02;2.60;;;0.80;;
41141;SDS011;63666;52.284;20.890;2023-05-31T12:43:35;2.80;;;0.80;;
41141;SDS011;63666;52.284;20.890;2023-05-31T12:46:09;2.30;;;0.90;;
41141;SDS011;63666;52.284;20.890;2023-05-31T12:48:46;2.80;;;0.90;;
41141;SDS011;63666;52.284;20.890;2023-05-31T12:51:23;2.30;;;0.90;;
41141;SDS011;63666;52.284;20.890;2023-05-31T12:54:01;2.60;;;0.80;;
41141;SDS011;63666;52.284;20.890;2023-05-31T12:56:34;2.20;;;0.80;;
41141;SDS011;63666;52.284;20.890;2023-05-31T12:59:09;2.80;;;0.90;;
41141;SDS011;63666;52.284;20.890;2023-05-31T13:01:45;3.50;;;1.00;;
41141;SDS011;63666;52.284;20.890;2023-05-31T13:04:19;2.10;;;0.90;;
41141;SDS011;63666;52.284;20.890;2023-05-31T13:06:52;2.30;;;0.90;;
41141;SDS011;63666;52.284;20.890;2023-05-31T13:09:28;2.90;;;0.90;;
41141;SDS011;63666;52.284;20.890;2023-05-31T13:12:03;3.60;;;1.00;;
41141;SDS011;63666;52.284;20.890;2023-05-31T13:14:37;2.50;;;0.90;;
41141;SDS011;63666;52.284;20.890;2023-05-31T13:17:10;3.10;;;1.10;;
41141;SDS011;63666;52.284;20.890;2023-05-31T13:19:43;2.90;;;1.00;;
41141;SDS011;63666;52.284;20.890;2023-05-31T13:22:39;2.10;;;0.90;;
41141;SDS011;63666;52.284;20.890;2023-05-31T13:25:16;2.70;;;1.00;;
41141;SDS011;63666;52.284;20.890;2023-05-31T13:28:08;3.60;;;0.90;;
41141;SDS011;63666;52.284;20.890;2023-05-31T13:30:42;2.70;;;1.00;;
41141;SDS011;63666;52.284;20.890;2023-05-31T13:33:15;2.90;;;0.90;;
41141;SDS011;63666;52.284;20.890;2023-05-31T13:35:48;4.30;;;1.00;;
41141;SDS011;63666;52.284;20.890;2023-05-31T13:38:23;2.80;;;0.90;;
41141;SDS011;63666;52.284;20.890;2023-05-31T13:40:57;2.90;;;1.10;;
41141;SDS011;63666;52.284;20.890;2023-05-31T13:43:33;1.90;;;0.80;;
41141;SDS011;63666;52.284;20.890;2023-05-31T13:46:07;2.30;;;0.80;;
41141;SDS011;63666;52.284;20.890;2023-05-31T13:49:00;2.20;;;1.00;;
41141;SDS011;63666;52.284;20.890;2023-05-31T13:51:38;3.30;;;1.00;;
41141;SDS011;63666;52.284;20.890;2023-05-31T13:54:14;2.30;;;0.90;;
41141;SDS011;63666;52.284;20.890;2023-05-31T13:56:52;2.70;;;1.10;;
41141;SDS011;63666;52.284;20.890;2023-05-31T13:59:30;3.20;;;0.90;;
41141;SDS011;63666;52.284;20.890;2023-05-31T14:02:04;2.70;;;1.20;;
41141;SDS011;63666;52.284;20.890;2023-05-31T14:04:38;2.80;;;1.00;;
41141;SDS011;63666;52.284;20.890;2023-05-31T14:07:13;3.10;;;0.90;;
41141;SDS011;63666;52.284;20.890;2023-05-31T14:09:46;2.80;;;1.00;;
41141;SDS011;63666;52.284;20.890;2023-05-31T14:12:37;3.20;;;1.10;;
41141;SDS011;63666;52.284;20.890;2023-05-31T14:15:29;2.30;;;1.00;;
41141;SDS011;63666;52.284;20.890;2023-05-31T14:18:02;3.00;;;1.10;;
41141;SDS011;63666;52.284;20.890;2023-05-31T14:20:36;2.70;;;1.00;;
41141;SDS011;63666;52.284;20.890;2023-05-31T14:23:09;2.50;;;1.00;;
41141;SDS011;63666;52.284;20.890;2023-05-31T14:25:43;2.70;;;1.10;;
41141;SDS011;63666;52.284;20.890;2023-05-31T14:28:16;2.70;;;0.90;;
41141;SDS011;63666;52.284;20.890;2023-05-31T14:30:50;3.70;;;1.20;;
41141;SDS011;63666;52.284;20.890;2023-05-31T14:33:24;2.60;;;1.00;;
41141;SDS011;63666;52.284;20.890;2023-05-31T14:35:59;2.60;;;1.00;;
41141;SDS011;63666;52.284;20.890;2023-05-31T14:38:33;2.50;;;1.00;;
41141;SDS011;63666;52.284;20.890;2023-05-31T14:41:07;2.90;;;1.10;;
41141;SDS011;63666;52.284;20.890;2023-05-31T14:43:41;2.30;;;0.90;;
41141;SDS011;63666;52.284;20.890;2023-05-31T14:46:14;2.90;;;1.00;;
41141;SDS011;63666;52.284;20.890;2023-05-31T14:49:06;3.20;;;1.10;;
41141;SDS011;63666;52.284;20.890;2023-05-31T14:51:39;3.10;;;1.00;;
41141;SDS011;63666;52.284;20.890;2023-05-31T14:54:14;2.30;;;0.90;;
41141;SDS011;63666;52.284;20.890;2023-05-31T14:56:49;3.60;;;1.10;;
41141;SDS011;63666;52.284;20.890;2023-05-31T14:59:22;3.10;;;1.10;;
41141;SDS011;63666;52.284;20.890;2023-05-31T15:02:19;2.70;;;1.00;;
41141;SDS011;63666;52.284;20.890;2023-05-31T15:04:52;3.30;;;1.20;;
41141;SDS011;63666;52.284;20.890;2023-05-31T15:07:26;3.20;;;1.10;;
41141;SDS011;63666;52.284;20.890;2023-05-31T15:10:02;3.40;;;1.20;;
41141;SDS011;63666;52.284;20.890;2023-05-31T15:12:38;2.70;;;1.10;;
41141;SDS011;63666;52.284;20.890;2023-05-31T15:15:14;2.80;;;1.20;;
41141;SDS011;63666;52.284;20.890;2023-05-31T15:17:51;3.50;;;1.10;;
41141;SDS011;63666;52.284;20.890;2023-05-31T15:20:25;3.50;;;1.30;;
41141;SDS011;63666;52.284;20.890;2023-05-31T15:23:00;3.20;;;1.10;;
41141;SDS011;63666;52.284;20.890;2023-05-31T15:25:35;3.30;;;1.10;;